sensor_id;sensor_type;location;lat;lon;timestamp;pressure;altitude;pressure_sealevel;temperature;humidity
51083;BME280;37131;42.694;23.350;2023-04-20T00:00:41;95129.94;;;8.94;92.68
51083;BME280;37131;42.694;23.350;2023-04-20T00:03:07;95128.00;;;8.89;94.28
51083;BME280;37131;42.694;23.350;2023-04-20T00:05:32;95125.81;;;8.86;93.05
51083;BME280;37131;42.694;23.350;2023-04-20T00:07:57;95124.59;;;8.89;92.80
51083;BME280;37131;42.694;23.350;2023-04-20T00:10:23;95122.00;;;8.89;94.52
51083;BME280;37131;42.694;23.350;2023-04-20T00:12:48;95120.63;;;8.86;89.82
51083;BME280;37131;42.694;23.350;2023-04-20T00:15:13;95116.59;;;8.90;91.11
51083;BME280;37131;42.694;23.350;2023-04-20T00:17:39;95123.88;;;8.82;93.26
51083;BME280;37131;42.694;23.350;2023-04-20T00:20:04;95123.44;;;8.85;93.21
51083;BME280;37131;42.694;23.350;2023-04-20T00:22:30;95116.44;;;8.85;93.58
51083;BME280;37131;42.694;23.350;2023-04-20T00:24:55;95112.00;;;8.67;93.40
51083;BME280;37131;42.694;23.350;2023-04-20T00:27:20;95117.28;;;8.79;90.54
51083;BME280;37131;42.694;23.350;2023-04-20T00:29:46;95110.34;;;8.73;93.64
51083;BME280;37131;42.694;23.350;2023-04-20T00:32:11;95111.53;;;8.77;94.19
51083;BME280;37131;42.694;23.350;2023-04-20T00:34:36;95111.75;;;8.75;92.91
51083;BME280;37131;42.694;23.350;2023-04-20T00:37:02;95112.34;;;8.71;89.79
51083;BME280;37131;42.694;23.350;2023-04-20T00:39:27;95104.28;;;8.79;89.53
51083;BME280;37131;42.694;23.350;2023-04-20T00:41:52;95110.91;;;8.56;90.69
51083;BME280;37131;42.694;23.350;2023-04-20T00:44:17;95106.56;;;8.50;92.47
51083;BME280;37131;42.694;23.350;2023-04-20T00:46:43;95109.88;;;8.57;94.98
51083;BME280;37131;42.694;23.350;2023-04-20T00:49:08;95107.16;;;8.52;97.66
51083;BME280;37131;42.694;23.350;2023-04-20T00:51:33;95111.84;;;8.62;91.18
51083;BME280;37131;42.694;23.350;2023-04-20T00:53:59;95111.75;;;8.50;89.55
51083;BME280;37131;42.694;23.350;2023-04-20T00:56:25;95117.13;;;8.55;87.97
51083;BME280;37131;42.694;23.350;2023-04-20T00:58:50;95112.28;;;8.59;86.86
51083;BME280;37131;42.694;23.350;2023-04-20T01:01:15;95110.63;;;8.65;86.62
51083;BME280;37131;42.694;23.350;2023-04-20T01:03:43;95111.00;;;8.43;88.55
51083;BME280;37131;42.694;23.350;2023-04-20T01:06:09;95103.69;;;8.58;89.53
51083;BME280;37131;42.694;23.350;2023-04-20T01:08:35;95103.69;;;8.58;89.56
51083;BME280;37131;42.694;23.350;2023-04-20T01:11:00;95108.22;;;8.45;88.12
51083;BME280;37131;42.694;23.350;2023-04-20T01:13:26;95107.81;;;8.41;88.40
51083;BME280;37131;42.694;23.350;2023-04-20T01:15:51;95104.22;;;8.42;88.90
51083;BME280;37131;42.694;23.350;2023-04-20T01:18:16;95102.22;;;8.44;89.61
51083;BME280;37131;42.694;23.350;2023-04-20T01:20:44;95112.88;;;8.36;88.96
51083;BME280;37131;42.694;23.350;2023-04-20T01:23:11;95108.66;;;8.35;90.25
51083;BME280;37131;42.694;23.350;2023-04-20T01:25:36;95106.78;;;8.49;90.28
51083;BME280;37131;42.694;23.350;2023-04-20T01:28:01;95102.22;;;8.44;89.99
51083;BME280;37131;42.694;23.350;2023-04-20T01:30:27;95101.00;;;8.47;90.79
51083;BME280;37131;42.694;23.350;2023-04-20T01:32:52;95104.88;;;8.63;90.14
51083;BME280;37131;42.694;23.350;2023-04-20T01:35:18;95100.22;;;8.65;87.95
51083;BME280;37131;42.694;23.350;2023-04-20T01:37:43;95101.81;;;8.66;87.56
51083;BME280;37131;42.694;23.350;2023-04-20T01:40:09;95099.28;;;8.59;87.03
51083;BME280;37131;42.694;23.350;2023-04-20T01:42:35;95089.84;;;8.65;88.03
51083;BME280;37131;42.694;23.350;2023-04-20T01:45:00;95096.25;;;8.62;87.00
51083;BME280;37131;42.694;23.350;2023-04-20T01:47:26;95083.34;;;8.55;87.03
51083;BME280;37131;42.694;23.350;2023-04-20T01:49:51;95084.72;;;8.58;86.42
51083;BME280;37131;42.694;23.350;2023-04-20T01:52:16;95087.81;;;8.48;87.07
51083;BME280;37131;42.694;23.350;2023-04-20T01:54:41;95083.81;;;8.46;87.09
51083;BME280;37131;42.694;23.350;2023-04-20T01:57:07;95083.75;;;8.52;86.91
51083;BME280;37131;42.694;23.350;2023-04-20T01:59:32;95088.31;;;8.57;87.28
51083;BME280;37131;42.694;23.350;2023-04-20T02:01:57;95083.22;;;8.43;88.99
51083;BME280;37131;42.694;23.350;2023-04-20T02:04:23;95081.25;;;8.39;89.22
51083;BME280;37131;42.694;23.350;2023-04-20T02:06:48;95084.94;;;8.31;89.69
51083;BME280;37131;42.694;23.350;2023-04-20T02:09:13;95079.53;;;8.33;90.54
51083;BME280;37131;42.694;23.350;2023-04-20T02:11:39;95085.88;;;8.37;88.86
51083;BME280;37131;42.694;23.350;2023-04-20T02:14:04;95082.56;;;8.55;86.80
51083;BME280;37131;42.694;23.350;2023-04-20T02:16:30;95079.84;;;8.43;89.50
51083;BME280;37131;42.694;23.350;2023-04-20T02:18:55;95087.63;;;8.43;88.47
51083;BME280;37131;42.694;23.350;2023-04-20T02:21:21;95083.88;;;8.39;89.18
51083;BME280;37131;42.694;23.350;2023-04-20T02:23:46;95085.19;;;8.23;91.66
51083;BME280;37131;42.694;23.350;2023-04-20T02:26:11;95086.09;;;8.10;90.79
51083;BME280;37131;42.694;23.350;2023-04-20T02:28:36;95091.03;;;8.18;89.70
51083;BME280;37131;42.694;23.350;2023-04-20T02:31:02;95086.41;;;8.20;89.30
51083;BME280;37131;42.694;23.350;2023-04-20T02:33:27;95088.47;;;8.12;89.00
51083;BME280;37131;42.694;23.350;2023-04-20T02:35:52;95083.25;;;8.37;89.96
51083;BME280;37131;42.694;23.350;2023-04-20T02:38:18;95082.69;;;8.35;88.57
51083;BME280;37131;42.694;23.350;2023-04-20T02:40:43;95084.50;;;8.34;88.48
51083;BME280;37131;42.694;23.350;2023-04-20T02:43:08;95085.97;;;8.49;87.94
51083;BME280;37131;42.694;23.350;2023-04-20T02:45:33;95091.34;;;8.29;88.70
51083;BME280;37131;42.694;23.350;2023-04-20T02:47:59;95090.19;;;8.24;87.79
51083;BME280;37131;42.694;23.350;2023-04-20T02:50:24;95085.13;;;8.30;87.39
51083;BME280;37131;42.694;23.350;2023-04-20T02:52:50;95085.13;;;8.30;86.68
51083;BME280;37131;42.694;23.350;2023-04-20T02:55:15;95084.56;;;8.28;87.45
51083;BME280;37131;42.694;23.350;2023-04-20T02:57:41;95077.97;;;8.25;88.00
51083;BME280;37131;42.694;23.350;2023-04-20T03:00:06;95085.72;;;8.32;88.81
51083;BME280;37131;42.694;23.350;2023-04-20T03:02:33;95078.78;;;8.25;87.67
51083;BME280;37131;42.694;23.350;2023-04-20T03:04:58;95085.50;;;8.33;88.69
51083;BME280;37131;42.694;23.350;2023-04-20T03:07:24;95080.00;;;8.48;88.33
51083;BME280;37131;42.694;23.350;2023-04-20T03:09:49;95083.38;;;8.49;90.50
51083;BME280;37131;42.694;23.350;2023-04-20T03:12:14;95087.88;;;8.35;89.46
51083;BME280;37131;42.694;23.350;2023-04-20T03:14:39;95086.06;;;8.35;89.88
51083;BME280;37131;42.694;23.350;2023-04-20T03:17:05;95079.94;;;8.30;89.27
51083;BME280;37131;42.694;23.350;2023-04-20T03:19:31;95077.53;;;8.28;91.89
51083;BME280;37131;42.694;23.350;2023-04-20T03:21:56;95079.84;;;8.43;88.06
51083;BME280;37131;42.694;23.350;2023-04-20T03:24:21;95084.63;;;8.46;87.85
51083;BME280;37131;42.694;23.350;2023-04-20T03:26:47;95081.84;;;8.41;86.84
51083;BME280;37131;42.694;23.350;2023-04-20T03:29:13;95084.13;;;8.31;87.34
51083;BME280;37131;42.694;23.350;2023-04-20T03:31:38;95085.03;;;8.43;87.43
51083;BME280;37131;42.694;23.350;2023-04-20T03:34:03;95087.63;;;8.43;88.52
51083;BME280;37131;42.694;23.350;2023-04-20T03:36:28;95087.63;;;8.43;88.35
51083;BME280;37131;42.694;23.350;2023-04-20T03:38:54;95081.59;;;8.49;86.85
51083;BME280;37131;42.694;23.350;2023-04-20T03:41:19;95091.56;;;8.52;86.65
51083;BME280;37131;42.694;23.350;2023-04-20T03:43:44;95085.28;;;8.60;87.66
51083;BME280;37131;42.694;23.350;2023-04-20T03:46:10;95083.66;;;8.40;87.66
51083;BME280;37131;42.694;23.350;2023-04-20T03:48:35;95085.03;;;8.43;86.72
51083;BME280;37131;42.694;23.350;2023-04-20T03:51:00;95089.19;;;8.51;86.36
51083;BME280;37131;42.694;23.350;2023-04-20T03:53:25;95084.50;;;8.59;85.79
51083;BME280;37131;42.694;23.350;2023-04-20T03:55:53;95091.44;;;8.66;85.08
51083;BME280;37131;42.694;23.350;2023-04-20T03:58:18;95093.16;;;8.72;84.13
51083;BME280;37131;42.694;23.350;2023-04-20T04:00:43;95089.84;;;8.65;85.96
51083;BME280;37131;42.694;23.350;2023-04-20T04:03:08;95094.91;;;8.59;86.05
51083;BME280;37131;42.694;23.350;2023-04-20T04:05:34;95095.91;;;8.58;87.65
51083;BME280;37131;42.694;23.350;2023-04-20T04:07:59;95091.34;;;8.54;87.63
51083;BME280;37131;42.694;23.350;2023-04-20T04:10:25;95098.94;;;8.55;85.97
51083;BME280;37131;42.694;23.350;2023-04-20T04:12:50;95098.72;;;8.57;86.38
51083;BME280;37131;42.694;23.350;2023-04-20T04:15:15;95099.44;;;8.64;85.62
51083;BME280;37131;42.694;23.350;2023-04-20T04:17:43;95096.34;;;8.74;84.94
51083;BME280;37131;42.694;23.350;2023-04-20T04:20:08;95100.44;;;8.63;83.62
51083;BME280;37131;42.694;23.350;2023-04-20T04:22:34;95100.31;;;8.58;84.64
51083;BME280;37131;42.694;23.350;2023-04-20T04:24:59;95102.53;;;8.54;85.33
51083;BME280;37131;42.694;23.350;2023-04-20T04:27:24;95101.44;;;8.62;85.16
51083;BME280;37131;42.694;23.350;2023-04-20T04:29:50;95104.47;;;8.59;84.74
51083;BME280;37131;42.694;23.350;2023-04-20T04:32:15;95108.03;;;8.65;84.57
51083;BME280;37131;42.694;23.350;2023-04-20T04:34:41;95103.00;;;8.70;83.96
51083;BME280;37131;42.694;23.350;2023-04-20T04:37:08;95108.63;;;8.85;83.32
51083;BME280;37131;42.694;23.350;2023-04-20T04:39:34;95111.09;;;8.80;84.38
51083;BME280;37131;42.694;23.350;2023-04-20T04:41:59;95113.38;;;8.70;85.74
51083;BME280;37131;42.694;23.350;2023-04-20T04:44:24;95112.22;;;8.66;85.72
51083;BME280;37131;42.694;23.350;2023-04-20T04:46:50;95113.44;;;8.45;86.19
51083;BME280;37131;42.694;23.350;2023-04-20T04:49:15;95117.34;;;8.54;87.09
51083;BME280;37131;42.694;23.350;2023-04-20T04:51:40;95112.56;;;8.51;87.02
51083;BME280;37131;42.694;23.350;2023-04-20T04:54:05;95119.50;;;8.57;89.58
51083;BME280;37131;42.694;23.350;2023-04-20T04:56:31;95123.06;;;8.63;90.98
51083;BME280;37131;42.694;23.350;2023-04-20T04:58:56;95124.22;;;8.67;88.22
51083;BME280;37131;42.694;23.350;2023-04-20T05:01:21;95121.25;;;8.63;87.41
51083;BME280;37131;42.694;23.350;2023-04-20T05:03:46;95123.44;;;8.85;87.00
51083;BME280;37131;42.694;23.350;2023-04-20T05:06:12;95123.91;;;8.75;86.25
51083;BME280;37131;42.694;23.350;2023-04-20T05:08:37;95130.22;;;8.86;86.33
51083;BME280;37131;42.694;23.350;2023-04-20T05:11:04;95129.94;;;8.94;85.28
51083;BME280;37131;42.694;23.350;2023-04-20T05:13:29;95125.97;;;8.91;84.32
51083;BME280;37131;42.694;23.350;2023-04-20T05:15:55;95127.00;;;8.90;84.89
51083;BME280;37131;42.694;23.350;2023-04-20T05:18:20;95124.38;;;9.09;83.33
51083;BME280;37131;42.694;23.350;2023-04-20T05:20:45;95129.56;;;9.09;83.12
51083;BME280;37131;42.694;23.350;2023-04-20T05:23:11;95135.50;;;9.16;82.57
51083;BME280;37131;42.694;23.350;2023-04-20T05:25:36;95125.88;;;9.17;81.97
51083;BME280;37131;42.694;23.350;2023-04-20T05:28:01;95127.78;;;9.09;82.69
51083;BME280;37131;42.694;23.350;2023-04-20T05:30:27;95131.16;;;9.10;82.75
51083;BME280;37131;42.694;23.350;2023-04-20T05:32:52;95125.75;;;9.11;84.24
51083;BME280;37131;42.694;23.350;2023-04-20T05:35:17;95129.00;;;9.07;84.41
51083;BME280;37131;42.694;23.350;2023-04-20T05:37:43;95132.63;;;9.24;83.74
51083;BME280;37131;42.694;23.350;2023-04-20T05:40:08;95133.25;;;9.38;82.46
51083;BME280;37131;42.694;23.350;2023-04-20T05:42:33;95133.63;;;9.23;83.07
51083;BME280;37131;42.694;23.350;2023-04-20T05:44:59;95133.34;;;9.32;82.33
51083;BME280;37131;42.694;23.350;2023-04-20T05:47:24;95139.66;;;9.36;81.91
51083;BME280;37131;42.694;23.350;2023-04-20T05:49:51;95129.41;;;9.41;81.72
51083;BME280;37131;42.694;23.350;2023-04-20T05:52:16;95136.66;;;9.20;82.96
51083;BME280;37131;42.694;23.350;2023-04-20T05:54:42;95144.03;;;9.23;82.59
51083;BME280;37131;42.694;23.350;2023-04-20T05:57:07;95135.63;;;9.40;81.80
51083;BME280;37131;42.694;23.350;2023-04-20T05:59:32;95137.78;;;9.43;82.19
51083;BME280;37131;42.694;23.350;2023-04-20T06:01:58;95136.78;;;9.44;83.68
51083;BME280;37131;42.694;23.350;2023-04-20T06:04:23;95143.00;;;9.43;82.29
51083;BME280;37131;42.694;23.350;2023-04-20T06:06:48;95138.38;;;9.45;84.82
51083;BME280;37131;42.694;23.350;2023-04-20T06:09:13;95136.13;;;9.48;84.46
51083;BME280;37131;42.694;23.350;2023-04-20T06:11:39;95134.00;;;9.57;82.43
51083;BME280;37131;42.694;23.350;2023-04-20T06:14:04;95134.31;;;9.49;82.16
51083;BME280;37131;42.694;23.350;2023-04-20T06:16:29;95136.28;;;9.54;82.67
51083;BME280;37131;42.694;23.350;2023-04-20T06:18:55;95141.88;;;9.51;83.23
51083;BME280;37131;42.694;23.350;2023-04-20T06:21:20;95145.09;;;9.53;84.44
51083;BME280;37131;42.694;23.350;2023-04-20T06:23:46;95137.28;;;9.53;84.29
51083;BME280;37131;42.694;23.350;2023-04-20T06:26:11;95144.13;;;9.65;82.44
51083;BME280;37131;42.694;23.350;2023-04-20T06:28:36;95136.88;;;9.68;82.36
51083;BME280;37131;42.694;23.350;2023-04-20T06:31:02;95146.13;;;9.63;83.60
51083;BME280;37131;42.694;23.350;2023-04-20T06:33:28;95134.78;;;9.76;84.81
51083;BME280;37131;42.694;23.350;2023-04-20T06:35:53;95140.91;;;9.82;82.72
51083;BME280;37131;42.694;23.350;2023-04-20T06:38:20;95141.84;;;9.88;83.93
51083;BME280;37131;42.694;23.350;2023-04-20T06:40:46;95147.22;;;9.86;82.64
51083;BME280;37131;42.694;23.350;2023-04-20T06:43:11;95151.34;;;9.63;84.54
51083;BME280;37131;42.694;23.350;2023-04-20T06:45:36;95148.19;;;9.61;85.51
51083;BME280;37131;42.694;23.350;2023-04-20T06:48:02;95153.38;;;9.61;84.02
51083;BME280;37131;42.694;23.350;2023-04-20T06:50:27;95159.03;;;9.58;83.87
51083;BME280;37131;42.694;23.350;2023-04-20T06:52:52;95161.94;;;9.50;85.06
51083;BME280;37131;42.694;23.350;2023-04-20T06:55:17;95158.22;;;9.58;85.78
51083;BME280;37131;42.694;23.350;2023-04-20T06:57:43;95159.66;;;9.72;86.23
51083;BME280;37131;42.694;23.350;2023-04-20T07:00:09;95160.16;;;9.62;87.49
51083;BME280;37131;42.694;23.350;2023-04-20T07:02:44;95163.75;;;9.80;87.38
51083;BME280;37131;42.694;23.350;2023-04-20T07:05:10;95168.84;;;9.75;85.58
51083;BME280;37131;42.694;23.350;2023-04-20T07:07:35;95160.63;;;9.90;87.75
51083;BME280;37131;42.694;23.350;2023-04-20T07:10:01;95164.00;;;9.90;87.27
51083;BME280;37131;42.694;23.350;2023-04-20T07:12:26;95167.72;;;9.82;85.80
51083;BME280;37131;42.694;23.350;2023-04-20T07:14:51;95169.66;;;9.87;86.11
51083;BME280;37131;42.694;23.350;2023-04-20T07:17:17;95168.63;;;9.76;86.69
51083;BME280;37131;42.694;23.350;2023-04-20T07:19:42;95168.06;;;9.86;86.42
51083;BME280;37131;42.694;23.350;2023-04-20T07:22:07;95172.09;;;10.00;85.27
51083;BME280;37131;42.694;23.350;2023-04-20T07:24:32;95175.59;;;9.94;84.95
51083;BME280;37131;42.694;23.350;2023-04-20T07:26:58;95175.25;;;9.91;84.74
51083;BME280;37131;42.694;23.350;2023-04-20T07:29:23;95170.44;;;10.18;84.28
51083;BME280;37131;42.694;23.350;2023-04-20T07:31:48;95169.38;;;10.38;84.54
51083;BME280;37131;42.694;23.350;2023-04-20T07:34:13;95167.59;;;10.50;84.91
51083;BME280;37131;42.694;23.350;2023-04-20T07:36:39;95165.09;;;10.67;82.04
51083;BME280;37131;42.694;23.350;2023-04-20T07:39:04;95168.63;;;10.73;80.17
51083;BME280;37131;42.694;23.350;2023-04-20T07:41:29;95165.22;;;10.72;77.69
51083;BME280;37131;42.694;23.350;2023-04-20T07:43:55;95166.34;;;10.64;80.31
51083;BME280;37131;42.694;23.350;2023-04-20T07:46:20;95165.56;;;10.64;77.61
51083;BME280;37131;42.694;23.350;2023-04-20T07:48:46;95158.19;;;10.84;78.01
51083;BME280;37131;42.694;23.350;2023-04-20T07:51:11;95156.25;;;11.03;78.50
51083;BME280;37131;42.694;23.350;2023-04-20T07:53:37;95154.22;;;10.94;77.19
51083;BME280;37131;42.694;23.350;2023-04-20T07:56:02;95160.69;;;11.03;78.10
51083;BME280;37131;42.694;23.350;2023-04-20T07:58:27;95158.28;;;11.13;77.44
51083;BME280;37131;42.694;23.350;2023-04-20T08:00:52;95164.97;;;11.21;78.40
51083;BME280;37131;42.694;23.350;2023-04-20T08:03:18;95160.66;;;11.27;74.28
51083;BME280;37131;42.694;23.350;2023-04-20T08:05:43;95164.13;;;11.44;73.47
51083;BME280;37131;42.694;23.350;2023-04-20T08:08:08;95160.09;;;11.65;73.35
51083;BME280;37131;42.694;23.350;2023-04-20T08:10:34;95162.97;;;11.52;72.21
51083;BME280;37131;42.694;23.350;2023-04-20T08:13:02;95169.78;;;11.41;72.98
51083;BME280;37131;42.694;23.350;2023-04-20T08:15:28;95168.22;;;11.40;72.08
51083;BME280;37131;42.694;23.350;2023-04-20T08:17:53;95163.00;;;11.40;73.55
51083;BME280;37131;42.694;23.350;2023-04-20T08:20:18;95171.03;;;11.50;73.29
51083;BME280;37131;42.694;23.350;2023-04-20T08:22:43;95174.19;;;11.52;71.40
51083;BME280;37131;42.694;23.350;2023-04-20T08:25:09;95170.78;;;11.64;72.26
51083;BME280;37131;42.694;23.350;2023-04-20T08:27:35;95163.72;;;11.64;71.83
51083;BME280;37131;42.694;23.350;2023-04-20T08:30:00;95166.44;;;11.69;71.35
51083;BME280;37131;42.694;23.350;2023-04-20T08:32:28;95167.63;;;11.50;72.98
51083;BME280;37131;42.694;23.350;2023-04-20T08:34:53;95172.09;;;11.78;72.15
51083;BME280;37131;42.694;23.350;2023-04-20T08:37:19;95172.31;;;11.76;72.03
51083;BME280;37131;42.694;23.350;2023-04-20T08:39:44;95169.34;;;12.14;70.22
51083;BME280;37131;42.694;23.350;2023-04-20T08:42:10;95170.44;;;12.18;70.37
51083;BME280;37131;42.694;23.350;2023-04-20T08:44:35;95157.72;;;12.38;70.83
51083;BME280;37131;42.694;23.350;2023-04-20T08:47:00;95165.38;;;12.28;68.33
51083;BME280;37131;42.694;23.350;2023-04-20T08:49:27;95153.94;;;12.46;67.71
51083;BME280;37131;42.694;23.350;2023-04-20T08:51:53;95162.00;;;12.27;67.91
51083;BME280;37131;42.694;23.350;2023-04-20T08:54:19;95162.84;;;12.16;67.43
51083;BME280;37131;42.694;23.350;2023-04-20T08:56:44;95169.59;;;12.12;67.90
51083;BME280;37131;42.694;23.350;2023-04-20T08:59:10;95165.22;;;12.18;69.12
51083;BME280;37131;42.694;23.350;2023-04-20T09:01:38;95165.72;;;12.32;67.69
51083;BME280;37131;42.694;23.350;2023-04-20T09:06:42;95165.72;;;12.32;67.02
51083;BME280;37131;42.694;23.350;2023-04-20T09:09:10;95169.97;;;12.21;66.75
51083;BME280;37131;42.694;23.350;2023-04-20T09:11:35;95168.06;;;11.99;66.93
51083;BME280;37131;42.694;23.350;2023-04-20T09:14:02;95165.16;;;12.13;67.59
51083;BME280;37131;42.694;23.350;2023-04-20T09:16:28;95167.06;;;12.17;67.21
51083;BME280;37131;42.694;23.350;2023-04-20T09:18:54;95168.66;;;12.18;67.85
51083;BME280;37131;42.694;23.350;2023-04-20T09:21:20;95154.00;;;12.34;66.82
51083;BME280;37131;42.694;23.350;2023-04-20T09:23:55;95159.16;;;12.63;66.91
51083;BME280;37131;42.694;23.350;2023-04-20T09:26:21;95160.41;;;12.77;64.83
51083;BME280;37131;42.694;23.350;2023-04-20T09:28:46;95154.69;;;12.63;64.84
51083;BME280;37131;42.694;23.350;2023-04-20T09:31:18;95152.38;;;12.84;64.73
51083;BME280;37131;42.694;23.350;2023-04-20T09:33:54;95142.91;;;13.17;63.61
51083;BME280;37131;42.694;23.350;2023-04-20T09:36:19;95141.00;;;13.57;62.16
51083;BME280;37131;42.694;23.350;2023-04-20T09:38:45;95144.50;;;13.62;60.41
51083;BME280;37131;42.694;23.350;2023-04-20T09:41:10;95137.09;;;13.81;60.75
51083;BME280;37131;42.694;23.350;2023-04-20T09:43:36;95139.56;;;14.20;59.08
51083;BME280;37131;42.694;23.350;2023-04-20T09:46:01;95134.34;;;14.58;59.21
51083;BME280;37131;42.694;23.350;2023-04-20T09:48:27;95130.44;;;14.61;57.70
51083;BME280;37131;42.694;23.350;2023-04-20T09:50:52;95133.50;;;14.52;58.97
51083;BME280;37131;42.694;23.350;2023-04-20T09:53:18;95135.94;;;14.97;56.55
51083;BME280;37131;42.694;23.350;2023-04-20T09:55:47;95141.88;;;14.82;55.52
51083;BME280;37131;42.694;23.350;2023-04-20T09:58:13;95124.22;;;15.15;55.72
51083;BME280;37131;42.694;23.350;2023-04-20T10:00:38;95127.84;;;14.33;56.22
51083;BME280;37131;42.694;23.350;2023-04-20T10:03:03;95126.53;;;14.31;58.35
51083;BME280;37131;42.694;23.350;2023-04-20T10:05:36;95123.94;;;14.36;57.34
51083;BME280;37131;42.694;23.350;2023-04-20T10:08:03;95125.00;;;14.02;58.19
51083;BME280;37131;42.694;23.350;2023-04-20T10:10:28;95120.59;;;13.81;58.40
51083;BME280;37131;42.694;23.350;2023-04-20T10:12:55;95111.47;;;14.16;57.90
51083;BME280;37131;42.694;23.350;2023-04-20T10:15:21;95105.09;;;14.39;58.32
51083;BME280;37131;42.694;23.350;2023-04-20T10:17:46;95105.38;;;14.80;56.78
51083;BME280;37131;42.694;23.350;2023-04-20T10:20:22;95104.53;;;15.17;57.63
51083;BME280;37131;42.694;23.350;2023-04-20T10:22:48;95106.00;;;14.93;54.27
51083;BME280;37131;42.694;23.350;2023-04-20T10:25:19;95100.75;;;14.93;54.62
51083;BME280;37131;42.694;23.350;2023-04-20T10:28:18;95102.13;;;14.63;54.62
51083;BME280;37131;42.694;23.350;2023-04-20T10:30:41;95103.56;;;14.81;55.86
51083;BME280;37131;42.694;23.350;2023-04-20T10:33:13;95103.38;;;14.93;52.46
51083;BME280;37131;42.694;23.350;2023-04-20T10:38:07;95097.25;;;14.77;56.16
51083;BME280;37131;42.694;23.350;2023-04-20T10:40:32;95100.38;;;14.73;56.51
51083;BME280;37131;42.694;23.350;2023-04-20T10:42:58;95103.34;;;14.50;54.46
51083;BME280;37131;42.694;23.350;2023-04-20T10:45:33;95101.31;;;13.92;56.33
51083;BME280;37131;42.694;23.350;2023-04-20T10:48:05;95095.06;;;14.63;54.46
51083;BME280;37131;42.694;23.350;2023-04-20T10:50:30;95100.25;;;14.96;55.13
51083;BME280;37131;42.694;23.350;2023-04-20T10:52:55;95094.53;;;15.09;53.98
51083;BME280;37131;42.694;23.350;2023-04-20T10:55:21;95096.97;;;15.31;52.68
51083;BME280;37131;42.694;23.350;2023-04-20T10:57:47;95100.56;;;15.09;53.15
51083;BME280;37131;42.694;23.350;2023-04-20T11:00:20;95104.22;;;15.08;53.30
51083;BME280;37131;42.694;23.350;2023-04-20T11:02:49;95090.72;;;15.48;52.82
51083;BME280;37131;42.694;23.350;2023-04-20T11:05:16;95096.06;;;15.84;51.52
51083;BME280;37131;42.694;23.350;2023-04-20T11:10:16;95082.72;;;16.21;52.90
51083;BME280;37131;42.694;23.350;2023-04-20T11:12:41;95086.66;;;16.08;48.72
51083;BME280;37131;42.694;23.350;2023-04-20T11:15:07;95080.25;;;15.73;49.70
51083;BME280;37131;42.694;23.350;2023-04-20T11:17:36;95083.66;;;15.64;49.75
51083;BME280;37131;42.694;23.350;2023-04-20T11:20:12;95081.38;;;15.93;48.58
51083;BME280;37131;42.694;23.350;2023-04-20T11:22:40;95084.00;;;15.88;48.60
51083;BME280;37131;42.694;23.350;2023-04-20T11:25:06;95074.41;;;15.40;51.50
51083;BME280;37131;42.694;23.350;2023-04-20T11:27:32;95075.50;;;15.60;49.18
51083;BME280;37131;42.694;23.350;2023-04-20T11:29:57;95082.59;;;15.65;49.67
51083;BME280;37131;42.694;23.350;2023-04-20T11:32:24;95071.31;;;15.59;50.40
51083;BME280;37131;42.694;23.350;2023-04-20T11:34:56;95081.44;;;15.24;50.00
51083;BME280;37131;42.694;23.350;2023-04-20T11:37:22;95069.47;;;15.65;49.34
51083;BME280;37131;42.694;23.350;2023-04-20T11:39:57;95066.59;;;15.76;48.61
51083;BME280;37131;42.694;23.350;2023-04-20T11:42:22;95071.66;;;16.04;49.11
51083;BME280;37131;42.694;23.350;2023-04-20T11:44:47;95056.94;;;16.13;50.19
51083;BME280;37131;42.694;23.350;2023-04-20T11:47:13;95066.13;;;15.85;47.61
51083;BME280;37131;42.694;23.350;2023-04-20T11:49:39;95066.91;;;15.90;47.40
51083;BME280;37131;42.694;23.350;2023-04-20T11:52:04;95062.19;;;15.98;47.63
51083;BME280;37131;42.694;23.350;2023-04-20T11:54:30;95061.66;;;15.95;47.41
51083;BME280;37131;42.694;23.350;2023-04-20T11:56:58;95060.28;;;15.77;48.21
51083;BME280;37131;42.694;23.350;2023-04-20T11:59:23;95059.75;;;15.65;49.97
51083;BME280;37131;42.694;23.350;2023-04-20T12:01:49;95066.94;;;16.01;49.46
51083;BME280;37131;42.694;23.350;2023-04-20T12:04:14;95059.22;;;15.63;49.99
51083;BME280;37131;42.694;23.350;2023-04-20T12:06:39;95056.75;;;15.25;50.59
51083;BME280;37131;42.694;23.350;2023-04-20T12:09:05;95066.47;;;15.15;50.26
51083;BME280;37131;42.694;23.350;2023-04-20T12:11:30;95065.88;;;14.60;52.31
51083;BME280;37131;42.694;23.350;2023-04-20T12:13:56;95071.03;;;14.44;52.96
51083;BME280;37131;42.694;23.350;2023-04-20T12:16:22;95071.50;;;14.36;52.96
51083;BME280;37131;42.694;23.350;2023-04-20T12:18:47;95069.72;;;14.09;53.24
51083;BME280;37131;42.694;23.350;2023-04-20T12:21:12;95078.25;;;13.94;53.94
51083;BME280;37131;42.694;23.350;2023-04-20T12:23:38;95074.28;;;13.92;55.02
51083;BME280;37131;42.694;23.350;2023-04-20T12:26:03;95076.69;;;13.66;57.48
51083;BME280;37131;42.694;23.350;2023-04-20T12:28:29;95077.81;;;13.75;58.57
51083;BME280;37131;42.694;23.350;2023-04-20T12:30:55;95074.91;;;13.72;57.82
51083;BME280;37131;42.694;23.350;2023-04-20T12:33:20;95070.34;;;13.62;57.46
51083;BME280;37131;42.694;23.350;2023-04-20T12:35:45;95067.53;;;13.96;55.38
51083;BME280;37131;42.694;23.350;2023-04-20T12:38:11;95062.97;;;14.18;55.86
51083;BME280;37131;42.694;23.350;2023-04-20T12:40:36;95063.84;;;14.67;54.35
51083;BME280;37131;42.694;23.350;2023-04-20T12:43:01;95048.91;;;16.80;50.61
51083;BME280;37131;42.694;23.350;2023-04-20T12:45:27;95039.00;;;17.77;45.94
51083;BME280;37131;42.694;23.350;2023-04-20T12:47:52;95029.75;;;18.19;46.49
51083;BME280;37131;42.694;23.350;2023-04-20T12:50:17;95028.03;;;18.33;44.51
51083;BME280;37131;42.694;23.350;2023-04-20T12:52:42;95042.72;;;17.31;45.73
51083;BME280;37131;42.694;23.350;2023-04-20T12:55:08;95048.41;;;16.78;46.11